createdAt,value
2022-12-24T00:01:22.203Z,3.62
2022-12-24T00:03:50.191Z,3.62
2022-12-24T00:06:21.191Z,3.56
2022-12-24T00:08:48.853Z,3.55
2022-12-24T00:11:16.352Z,3.55
2022-12-24T00:13:43.885Z,3.58
2022-12-24T00:16:11.525Z,3.65
2022-12-24T00:18:45.538Z,3.61
2022-12-24T00:21:14.980Z,3.65
2022-12-24T00:23:45.799Z,3.65
2022-12-24T00:26:14.595Z,3.64
2022-12-24T00:28:42.118Z,3.60
2022-12-24T00:31:14.959Z,3.64
2022-12-24T00:33:43.084Z,3.65
2022-12-24T00:36:10.674Z,3.67
2022-12-24T00:38:39.146Z,3.59
2022-12-24T00:41:25.138Z,3.61
2022-12-24T00:44:06.051Z,3.75
2022-12-24T00:46:35.182Z,3.63
2022-12-24T00:49:04.009Z,3.64
2022-12-24T00:51:32.109Z,3.62
2022-12-24T00:53:59.882Z,3.55
2022-12-24T00:56:27.537Z,3.56
2022-12-24T00:58:55.560Z,3.69
2022-12-24T01:01:24.319Z,3.59
2022-12-24T01:03:52.503Z,3.57
2022-12-24T01:06:22.973Z,3.60
2022-12-24T01:08:51.724Z,3.53
2022-12-24T01:11:19.576Z,3.57
2022-12-24T01:13:47.099Z,3.56
2022-12-24T01:16:18.201Z,3.56
2022-12-24T01:18:46.187Z,3.46
2022-12-24T01:21:13.931Z,3.49
2022-12-24T01:23:41.651Z,3.51
2022-12-24T01:26:14.837Z,3.49
2022-12-24T01:28:44.975Z,3.41
2022-12-24T01:31:18.498Z,3.44
2022-12-24T01:33:47.296Z,3.39
2022-12-24T01:36:15.126Z,3.43
2022-12-24T01:38:42.777Z,3.40
2022-12-24T01:41:41.091Z,3.51
2022-12-24T01:44:22.311Z,3.54
2022-12-24T01:47:15.453Z,3.47
2022-12-24T01:49:48.027Z,3.49
2022-12-24T01:52:22.670Z,3.50
2022-12-24T01:54:54.021Z,3.37
2022-12-24T01:57:44.382Z,3.35
2022-12-24T02:00:15.256Z,3.40
2022-12-24T02:02:46.843Z,3.47
2022-12-24T02:05:41.820Z,3.50
2022-12-24T02:08:09.570Z,3.43
2022-12-24T02:10:37.072Z,3.47
2022-12-24T02:13:05.623Z,3.48
2022-12-24T02:16:05.326Z,3.49
2022-12-24T02:18:50.520Z,3.57
2022-12-24T02:21:36.192Z,3.52
2022-12-24T02:24:40.301Z,3.58
2022-12-24T02:27:29.737Z,3.59
2022-12-24T02:30:00.748Z,3.54
2022-12-24T02:32:52.887Z,3.51
2022-12-24T02:35:28.951Z,3.56
2022-12-24T02:38:06.592Z,3.53
2022-12-24T02:40:39.804Z,3.52
2022-12-24T02:43:15.287Z,3.55
2022-12-24T02:45:55.229Z,3.57
2022-12-24T02:48:27.964Z,3.50
2022-12-24T02:51:13.606Z,3.52
2022-12-24T02:53:41.426Z,3.46
2022-12-24T02:56:20.659Z,3.55
2022-12-24T02:59:13.148Z,3.59
2022-12-24T03:02:06.649Z,3.62
2022-12-24T03:04:56.429Z,3.57
2022-12-24T03:07:38.940Z,3.59
2022-12-24T03:10:12.625Z,3.66
2022-12-24T03:12:45.255Z,3.65
2022-12-24T03:15:16.253Z,3.61
2022-12-24T03:17:46.868Z,3.60
2022-12-24T03:20:20.270Z,3.65
2022-12-24T03:22:48.211Z,3.65
2022-12-24T03:25:16.709Z,3.59
2022-12-24T03:27:45.110Z,3.60
2022-12-24T03:30:15.700Z,3.63
2022-12-24T03:32:43.463Z,3.61
2022-12-24T03:35:11.675Z,3.53
2022-12-24T03:37:39.350Z,3.51
2022-12-24T03:40:08.511Z,3.48
2022-12-24T03:42:36.093Z,3.45
2022-12-24T03:45:04.401Z,3.44
2022-12-24T03:47:34.160Z,3.48
2022-12-24T03:50:01.743Z,3.45
2022-12-24T03:52:30.762Z,3.38
2022-12-24T03:54:58.411Z,3.49
2022-12-24T03:57:25.856Z,3.37
2022-12-24T03:59:53.470Z,3.44
2022-12-24T04:02:21.109Z,3.43
2022-12-24T04:04:48.766Z,3.46
2022-12-24T04:07:16.370Z,3.52
2022-12-24T04:09:43.856Z,3.42
2022-12-24T04:12:11.409Z,3.39
2022-12-24T04:14:38.845Z,3.34
2022-12-24T04:17:06.576Z,3.34
2022-12-24T04:19:34.095Z,3.42
2022-12-24T04:22:01.807Z,3.47
2022-12-24T04:24:29.453Z,3.36
2022-12-24T04:26:56.915Z,3.41
2022-12-24T04:29:24.545Z,3.38
2022-12-24T04:31:52.122Z,3.40
2022-12-24T04:34:19.721Z,3.39
2022-12-24T04:36:47.403Z,3.38
2022-12-24T04:39:15.020Z,3.38
2022-12-24T04:41:42.579Z,3.34
2022-12-24T04:44:10.667Z,3.37
2022-12-24T04:46:38.338Z,3.36
2022-12-24T04:49:05.946Z,3.33
2022-12-24T04:51:33.594Z,3.35
2022-12-24T04:54:01.133Z,3.30
2022-12-24T04:56:32.017Z,3.25
2022-12-24T04:59:00.909Z,3.28
2022-12-24T05:01:32.854Z,3.29
2022-12-24T05:04:00.782Z,3.31
2022-12-24T05:06:31.882Z,3.36
2022-12-24T05:09:00.331Z,3.46
2022-12-24T05:11:28.847Z,3.40
2022-12-24T05:13:56.646Z,3.34
2022-12-24T05:16:24.453Z,3.29
2022-12-24T05:18:52.639Z,3.33
2022-12-24T05:21:24.303Z,3.32
2022-12-24T05:24:12.253Z,3.35
2022-12-24T05:26:56.103Z,3.32
2022-12-24T05:29:24.161Z,3.23
2022-12-24T05:31:51.697Z,3.26
2022-12-24T05:34:19.218Z,3.27
2022-12-24T05:36:46.865Z,3.32
2022-12-24T05:39:20.596Z,3.29
2022-12-24T05:41:48.201Z,3.29
2022-12-24T05:44:16.454Z,3.31
2022-12-24T05:46:45.016Z,3.31
2022-12-24T05:49:13.180Z,3.28
2022-12-24T05:51:41.530Z,3.35
2022-12-24T05:54:10.184Z,3.42
2022-12-24T05:56:37.832Z,3.45
2022-12-24T05:59:05.530Z,3.52
2022-12-24T06:01:33.149Z,3.47
2022-12-24T06:04:00.777Z,3.54
2022-12-24T06:06:28.892Z,3.48
2022-12-24T06:08:56.820Z,3.46
2022-12-24T06:11:27.102Z,3.55
2022-12-24T06:13:56.038Z,3.59
2022-12-24T06:16:25.478Z,3.59
2022-12-24T06:18:53.552Z,3.61
2022-12-24T06:21:21.181Z,3.58
2022-12-24T06:23:48.973Z,3.60
2022-12-24T06:26:19.759Z,3.64
2022-12-24T06:28:50.164Z,3.56
2022-12-24T06:31:20.549Z,3.55
2022-12-24T06:33:48.879Z,3.55
2022-12-24T06:36:22.640Z,3.60
2022-12-24T06:38:51.031Z,3.57
2022-12-24T06:41:19.636Z,3.50
2022-12-24T06:43:49.387Z,3.49
2022-12-24T06:46:18.100Z,3.48
2022-12-24T06:48:48.623Z,3.47
2022-12-24T06:51:20.066Z,3.48
2022-12-24T06:53:54.790Z,3.50
2022-12-24T06:56:23.383Z,3.49
2022-12-24T06:58:51.294Z,3.43
2022-12-24T07:01:20.986Z,3.46
2022-12-24T07:03:48.939Z,3.39
2022-12-24T07:06:24.862Z,3.37
2022-12-24T07:08:52.770Z,3.27
2022-12-24T07:11:21.256Z,3.34
2022-12-24T07:13:49.493Z,3.37
2022-12-24T07:16:17.818Z,3.39
2022-12-24T07:18:45.579Z,3.39
2022-12-24T07:21:13.072Z,3.43
2022-12-24T07:23:40.710Z,3.46
2022-12-24T07:26:08.573Z,3.55
2022-12-24T07:28:36.255Z,3.49
2022-12-24T07:31:03.829Z,3.41
2022-12-24T07:33:31.593Z,3.45
2022-12-24T07:36:04.380Z,3.51
2022-12-24T07:38:33.233Z,3.54
2022-12-24T07:41:01.105Z,3.50
2022-12-24T07:43:29.067Z,3.54
2022-12-24T07:45:58.134Z,3.53
2022-12-24T07:48:27.482Z,3.47
2022-12-24T07:50:55.700Z,3.52
2022-12-24T07:53:24.444Z,3.56
2022-12-24T07:55:52.081Z,3.58
2022-12-24T07:58:23.326Z,3.59
2022-12-24T08:00:57.205Z,3.68
2022-12-24T08:03:24.964Z,3.56
2022-12-24T08:05:55.529Z,3.58
2022-12-24T08:08:23.077Z,3.60
2022-12-24T08:10:51.040Z,3.58
2022-12-24T08:13:19.003Z,3.66
2022-12-24T08:15:46.532Z,3.68
2022-12-24T08:18:14.120Z,3.67
2022-12-24T08:20:42.060Z,3.61
2022-12-24T08:23:09.828Z,3.63
2022-12-24T08:25:37.812Z,3.65
2022-12-24T08:28:05.952Z,3.62
2022-12-24T08:30:34.039Z,3.62
2022-12-24T08:33:02.555Z,3.57
2022-12-24T08:35:30.188Z,3.58
2022-12-24T08:37:57.857Z,3.55
2022-12-24T08:40:25.577Z,3.47
2022-12-24T08:42:53.207Z,3.50
2022-12-24T08:45:22.206Z,3.50
2022-12-24T08:47:49.838Z,3.58
2022-12-24T08:50:17.426Z,3.58
2022-12-24T08:52:44.893Z,3.54
2022-12-24T08:55:14.549Z,3.59
2022-12-24T08:57:42.021Z,3.61
2022-12-24T09:00:12.263Z,3.65
2022-12-24T09:02:40.032Z,3.69
2022-12-24T09:05:08.019Z,3.73
2022-12-24T09:07:37.218Z,3.74
2022-12-24T09:10:05.652Z,3.73
2022-12-24T09:12:33.239Z,3.75
2022-12-24T09:15:03.868Z,3.72
2022-12-24T09:17:32.082Z,3.73
2022-12-24T09:19:59.569Z,3.77
2022-12-24T09:22:27.264Z,3.81
2022-12-24T09:24:57.706Z,3.77
2022-12-24T09:27:25.304Z,3.72
2022-12-24T09:29:52.963Z,3.65
2022-12-24T09:32:20.615Z,3.65
2022-12-24T09:34:48.424Z,3.64
2022-12-24T09:37:16.604Z,3.70
2022-12-24T09:39:44.274Z,3.68
2022-12-24T09:42:46.511Z,3.75
2022-12-24T09:45:23.251Z,3.61
2022-12-24T09:47:55.850Z,3.67
2022-12-24T09:50:32.737Z,3.66
2022-12-24T09:53:04.963Z,3.66
2022-12-24T09:55:46.204Z,3.71
2022-12-24T09:58:24.919Z,3.71
2022-12-24T10:00:53.831Z,3.73
2022-12-24T10:03:21.487Z,3.77
2022-12-24T10:06:11.082Z,3.75
2022-12-24T10:09:04.773Z,3.93
2022-12-24T10:11:52.864Z,3.70
2022-12-24T10:14:26.080Z,3.81
2022-12-24T10:16:53.466Z,3.68
2022-12-24T10:19:40.368Z,3.59
2022-12-24T10:22:35.630Z,3.63
2022-12-24T10:25:12.644Z,3.60
2022-12-24T10:27:40.658Z,3.59
2022-12-24T10:30:35.060Z,3.65
2022-12-24T10:33:02.995Z,3.58
2022-12-24T10:35:37.652Z,3.53
2022-12-24T10:38:05.248Z,3.48
2022-12-24T10:40:40.199Z,3.48
2022-12-24T10:43:17.017Z,3.53
2022-12-24T10:45:51.453Z,3.46
2022-12-24T10:48:29.365Z,3.60
2022-12-24T10:51:04.672Z,3.60
2022-12-24T10:53:52.831Z,3.73
2022-12-24T10:56:21.447Z,3.61
2022-12-24T10:58:55.771Z,3.59
2022-12-24T11:01:44.921Z,3.66
2022-12-24T11:04:18.220Z,3.57
2022-12-24T11:07:01.070Z,3.70
2022-12-24T11:09:34.128Z,3.69
2022-12-24T11:12:08.932Z,3.65
2022-12-24T11:14:39.514Z,3.59
2022-12-24T11:17:07.358Z,3.59
2022-12-24T11:19:40.249Z,3.57
2022-12-24T11:22:18.407Z,3.58
2022-12-24T11:24:50.059Z,3.60
2022-12-24T11:27:47.400Z,3.73
2022-12-24T11:30:16.258Z,3.70
2022-12-24T11:32:49.807Z,3.65
2022-12-24T11:35:23.771Z,3.65
2022-12-24T11:38:00.491Z,3.61
2022-12-24T11:40:35.827Z,3.64
2022-12-24T11:43:09.586Z,3.55
2022-12-24T11:45:49.485Z,3.53
2022-12-24T11:48:34.870Z,3.56
2022-12-24T11:51:07.781Z,3.48
2022-12-24T11:54:07.422Z,3.60
2022-12-24T11:56:43.308Z,3.42
2022-12-24T11:59:35.946Z,3.43
2022-12-24T12:02:25.240Z,3.49
2022-12-24T12:05:29.877Z,3.53
2022-12-24T12:08:10.824Z,3.49
2022-12-24T12:10:41.252Z,3.53
2022-12-24T12:13:19.327Z,3.57
2022-12-24T12:16:13.068Z,3.62
2022-12-24T12:18:47.145Z,3.55
2022-12-24T12:21:21.310Z,3.54
2022-12-24T12:23:57.791Z,3.64
2022-12-24T12:26:28.977Z,3.51
2022-12-24T12:28:59.181Z,3.41
2022-12-24T12:32:00.796Z,3.58
2022-12-24T12:34:39.256Z,3.52
2022-12-24T12:37:25.128Z,3.57
2022-12-24T12:39:52.636Z,3.50
2022-12-24T12:42:20.002Z,3.53
2022-12-24T12:45:06.271Z,3.54
2022-12-24T12:48:04.418Z,3.51
2022-12-24T12:50:59.384Z,3.58
2022-12-24T12:53:37.418Z,3.52
2022-12-24T12:56:24.053Z,3.52
2022-12-24T12:59:19.331Z,3.62
2022-12-24T13:02:22.055Z,3.55
2022-12-24T13:05:03.095Z,3.53
2022-12-24T13:08:12.093Z,3.67
2022-12-24T13:11:16.044Z,3.64
2022-12-24T13:14:09.072Z,3.62
2022-12-24T13:17:10.618Z,3.63
2022-12-24T13:19:40.824Z,3.60
2022-12-24T13:22:21.442Z,3.63
2022-12-24T13:24:52.636Z,3.56
2022-12-24T13:27:25.307Z,3.53
2022-12-24T13:29:54.074Z,3.54
2022-12-24T13:32:21.476Z,3.59
2022-12-24T13:34:58.026Z,3.65
2022-12-24T13:37:31.448Z,3.73
2022-12-24T13:40:08.422Z,3.80
2022-12-24T13:43:01.483Z,3.82
2022-12-24T13:45:29.294Z,3.80
2022-12-24T13:47:56.825Z,3.83
2022-12-24T13:50:48.711Z,3.93
2022-12-24T13:53:28.475Z,3.87
2022-12-24T13:55:59.611Z,3.85
2022-12-24T13:58:27.209Z,3.89
2022-12-24T14:01:25.020Z,3.90
2022-12-24T14:04:00.008Z,4.01
2022-12-24T14:06:38.093Z,4.02
2022-12-24T14:09:12.804Z,4.03
2022-12-24T14:11:58.915Z,4.15
2022-12-24T14:14:28.264Z,4.02
2022-12-24T14:17:00.389Z,3.97
2022-12-24T14:19:47.867Z,4.03
2022-12-24T14:22:18.024Z,3.93
2022-12-24T14:25:12.875Z,3.92
2022-12-24T14:27:46.384Z,3.96
2022-12-24T14:30:34.329Z,4.04
2022-12-24T14:33:01.894Z,3.89
2022-12-24T14:35:38.353Z,3.94
2022-12-24T14:38:18.843Z,3.90
2022-12-24T14:40:49.131Z,3.92
2022-12-24T14:43:28.596Z,3.98
2022-12-24T14:46:24.591Z,4.05
2022-12-24T14:48:56.609Z,3.96
2022-12-24T14:51:40.153Z,4.02
2022-12-24T14:54:10.507Z,4.03
2022-12-24T14:56:38.260Z,4.00
2022-12-24T14:59:20.110Z,4.07
2022-12-24T15:01:47.843Z,4.01
2022-12-24T15:04:18.259Z,3.98
2022-12-24T15:06:53.158Z,4.01
2022-12-24T15:09:24.787Z,4.03
2022-12-24T15:11:56.040Z,4.01
2022-12-24T15:14:25.813Z,3.99
2022-12-24T15:17:04.190Z,4.04
2022-12-24T15:19:36.112Z,4.05
2022-12-24T15:22:07.882Z,4.02
2022-12-24T15:24:43.776Z,4.05
2022-12-24T15:27:21.896Z,4.07
2022-12-24T15:29:52.443Z,4.04
2022-12-24T15:32:21.447Z,4.05
2022-12-24T15:34:54.452Z,4.07
2022-12-24T15:37:38.314Z,4.11
2022-12-24T15:40:21.927Z,4.08
2022-12-24T15:42:49.842Z,4.11
2022-12-24T15:45:30.824Z,4.17
2022-12-24T15:48:08.788Z,4.15
2022-12-24T15:50:45.862Z,4.11
2022-12-24T15:53:30.619Z,4.13
2022-12-24T15:56:01.074Z,4.15
2022-12-24T15:58:40.734Z,4.12
2022-12-24T16:01:14.427Z,4.15
2022-12-24T16:03:56.640Z,4.12
2022-12-24T16:06:24.908Z,4.09
2022-12-24T16:08:52.451Z,4.08
2022-12-24T16:11:25.380Z,4.08
2022-12-24T16:14:18.954Z,4.21
2022-12-24T16:16:52.919Z,4.11
2022-12-24T16:19:25.374Z,4.08
2022-12-24T16:21:58.943Z,4.12
2022-12-24T16:24:29.772Z,4.09
2022-12-24T16:26:58.110Z,4.09
2022-12-24T16:29:27.730Z,4.11
2022-12-24T16:31:57.773Z,4.09
2022-12-24T16:34:30.699Z,4.14
2022-12-24T16:36:59.272Z,4.14
2022-12-24T16:39:32.837Z,4.14
2022-12-24T16:42:21.266Z,4.13
2022-12-24T16:44:52.196Z,4.14
2022-12-24T16:47:27.128Z,4.21
2022-12-24T16:49:54.800Z,4.16
2022-12-24T16:52:29.024Z,4.18
2022-12-24T16:54:57.279Z,4.12
2022-12-24T16:57:24.823Z,4.11
2022-12-24T16:59:52.928Z,4.12
2022-12-24T17:02:22.772Z,4.10
2022-12-24T17:04:50.688Z,4.07
2022-12-24T17:07:20.156Z,4.08
2022-12-24T17:09:47.698Z,4.08
2022-12-24T17:12:15.485Z,4.06
2022-12-24T17:14:43.112Z,4.05
2022-12-24T17:17:24.458Z,4.11
2022-12-24T17:19:51.960Z,4.05
2022-12-24T17:22:20.194Z,4.06
2022-12-24T17:24:47.733Z,4.02
2022-12-24T17:27:15.347Z,4.01
2022-12-24T17:29:45.210Z,3.99
2022-12-24T17:32:12.745Z,3.98
2022-12-24T17:34:40.519Z,3.94
2022-12-24T17:37:08.035Z,3.93
2022-12-24T17:39:35.683Z,3.95
2022-12-24T17:42:03.231Z,3.93
2022-12-24T17:44:30.963Z,3.94
2022-12-24T17:46:58.777Z,3.96
2022-12-24T17:49:26.481Z,3.92
2022-12-24T17:51:54.149Z,3.95
2022-12-24T17:54:21.614Z,3.95
2022-12-24T17:56:49.334Z,3.93
2022-12-24T17:59:16.788Z,3.92
2022-12-24T18:01:44.402Z,3.97
2022-12-24T18:04:11.940Z,3.96
2022-12-24T18:06:45.597Z,3.93
2022-12-24T18:09:16.560Z,4.01
2022-12-24T18:11:44.332Z,4.01
2022-12-24T18:14:14.190Z,4.01
2022-12-24T18:16:42.548Z,4.00
2022-12-24T18:19:12.019Z,4.03
2022-12-24T18:21:40.594Z,4.04
2022-12-24T18:24:09.323Z,4.04
2022-12-24T18:26:36.985Z,4.07
2022-12-24T18:29:04.870Z,4.12
2022-12-24T18:31:34.156Z,4.07
2022-12-24T18:34:04.512Z,4.04
2022-12-24T18:36:32.476Z,3.99
2022-12-24T18:39:00.432Z,4.03
2022-12-24T18:41:30.365Z,4.04
2022-12-24T18:43:58.732Z,4.06
2022-12-24T18:46:31.853Z,4.09
2022-12-24T18:49:01.344Z,4.03
2022-12-24T18:51:32.240Z,4.03
2022-12-24T18:54:00.052Z,3.94
2022-12-24T18:56:27.827Z,3.87
2022-12-24T18:59:00.078Z,3.85
2022-12-24T19:01:34.779Z,3.83
2022-12-24T19:04:02.651Z,3.81
2022-12-24T19:06:30.233Z,3.72
2022-12-24T19:08:59.538Z,3.63
2022-12-24T19:11:33.023Z,3.54
2022-12-24T19:14:01.879Z,3.46
2022-12-24T19:16:31.760Z,3.38
2022-12-24T19:18:59.486Z,3.28
2022-12-24T19:21:27.209Z,3.21
2022-12-24T19:23:54.826Z,3.09
2022-12-24T19:26:22.784Z,3.01
2022-12-24T19:28:50.710Z,2.95
2022-12-24T19:31:23.675Z,2.88
2022-12-24T19:33:54.230Z,2.85
2022-12-24T19:36:27.287Z,2.92
2022-12-24T19:38:56.172Z,2.97
2022-12-24T19:41:26.545Z,3.06
2022-12-24T19:43:56.614Z,3.09
2022-12-24T19:46:27.728Z,3.06
2022-12-24T19:48:57.723Z,3.02
2022-12-24T19:51:27.197Z,3.03
2022-12-24T19:53:56.969Z,3.08
2022-12-24T19:56:26.488Z,3.11
2022-12-24T19:58:57.476Z,3.04
2022-12-24T20:01:28.073Z,3.01
2022-12-24T20:03:56.203Z,2.91
2022-12-24T20:06:26.495Z,2.79
2022-12-24T20:08:59.796Z,2.74
2022-12-24T20:11:27.633Z,2.64
2022-12-24T20:14:00.310Z,2.59
2022-12-24T20:16:29.605Z,2.50
2022-12-24T20:19:07.641Z,2.50
2022-12-24T20:21:35.378Z,2.41
2022-12-24T20:24:02.946Z,2.41
2022-12-24T20:26:30.800Z,2.39
2022-12-24T20:28:58.545Z,2.42
2022-12-24T20:31:28.111Z,2.35
2022-12-24T20:33:59.824Z,2.27
2022-12-24T20:36:28.977Z,2.27
2022-12-24T20:38:57.498Z,2.29
2022-12-24T20:41:27.051Z,2.35
2022-12-24T20:43:55.061Z,2.36
2022-12-24T20:46:24.355Z,2.46
2022-12-24T20:48:52.328Z,2.47
2022-12-24T20:51:25.051Z,2.42
2022-12-24T20:53:55.390Z,2.46
2022-12-24T20:56:23.296Z,2.47
2022-12-24T20:58:51.732Z,2.47
2022-12-24T21:01:24.529Z,2.44
2022-12-24T21:03:56.910Z,2.41
2022-12-24T21:06:25.198Z,2.38
2022-12-24T21:08:53.899Z,2.37
2022-12-24T21:11:40.541Z,2.33
2022-12-24T21:14:08.465Z,2.30
2022-12-24T21:16:38.359Z,2.39
2022-12-24T21:19:08.621Z,2.49
2022-12-24T21:21:36.534Z,2.56
2022-12-24T21:24:06.188Z,2.61
2022-12-24T21:26:34.748Z,2.59
2022-12-24T21:29:04.809Z,2.57
2022-12-24T21:31:32.965Z,2.59
2022-12-24T21:34:00.820Z,2.55
2022-12-24T21:36:28.536Z,2.50
2022-12-24T21:38:56.194Z,2.46
2022-12-24T21:41:24.552Z,2.45
2022-12-24T21:43:52.121Z,2.41
2022-12-24T21:46:23.277Z,2.38
2022-12-24T21:49:11.702Z,2.37
2022-12-24T21:51:40.272Z,2.34
2022-12-24T21:54:26.137Z,2.30
2022-12-24T21:57:14.230Z,2.30
2022-12-24T21:59:42.627Z,2.30
2022-12-24T22:02:15.056Z,2.28
2022-12-24T22:04:43.679Z,2.31
2022-12-24T22:07:45.283Z,2.42
2022-12-24T22:10:33.069Z,2.45
2022-12-24T22:13:03.726Z,2.47
2022-12-24T22:15:31.285Z,2.51
2022-12-24T22:17:58.774Z,2.57
2022-12-24T22:20:28.826Z,2.62
2022-12-24T22:22:56.669Z,2.65
2022-12-24T22:25:24.105Z,2.69
2022-12-24T22:27:51.856Z,2.73
2022-12-24T22:30:19.604Z,2.76
2022-12-24T22:32:47.707Z,2.79
2022-12-24T22:35:15.912Z,2.87
2022-12-24T22:37:43.426Z,2.91
2022-12-24T22:40:11.717Z,2.89
2022-12-24T22:42:41.136Z,2.86
2022-12-24T22:45:10.026Z,2.85
2022-12-24T22:47:37.557Z,2.90
2022-12-24T22:50:05.943Z,2.88
2022-12-24T22:52:35.010Z,2.78
2022-12-24T22:55:03.116Z,2.74
2022-12-24T22:57:31.131Z,2.70
2022-12-24T22:59:58.806Z,2.69
2022-12-24T23:02:28.838Z,2.71
2022-12-24T23:04:56.858Z,2.70
2022-12-24T23:07:24.913Z,2.67
2022-12-24T23:09:52.383Z,2.68
2022-12-24T23:12:39.764Z,2.72
2022-12-24T23:15:08.045Z,2.72
2022-12-24T23:17:35.633Z,2.70
2022-12-24T23:20:03.959Z,2.69
2022-12-24T23:22:31.603Z,2.75
2022-12-24T23:24:59.108Z,2.86
2022-12-24T23:27:26.618Z,2.78
2022-12-24T23:29:54.155Z,2.76
2022-12-24T23:32:22.964Z,2.77
2022-12-24T23:34:50.470Z,2.77
2022-12-24T23:37:17.901Z,2.75
2022-12-24T23:39:45.409Z,2.78
2022-12-24T23:42:12.912Z,2.76
2022-12-24T23:44:40.473Z,2.75
2022-12-24T23:47:07.925Z,2.76
2022-12-24T23:49:36.800Z,2.87
2022-12-24T23:52:04.359Z,2.85
2022-12-24T23:54:31.796Z,2.84
2022-12-24T23:56:59.308Z,2.85
2022-12-24T23:59:26.925Z,2.88
